East Dean, United Kingdom
Current Conditions -  °F | °C
As of 9:50 AM on Monday 22 Dec 2014 (Local Time) from EGVP Reporting Station
Broken Clouds Broken Clouds  
Wind Chill: 54°   Ceiling: 18000
Heat Index: 54°   Visibility: 6mi
Dew Point: 46°   Wind: 18mph
Humidity: 77%   Direction: 250°WSW
Pressure: 30.12"   Gusts: NA
Location:  51.04°N, 1.61°W
Report Text: EGVP 220950Z AUTO 25016KT 9999 // FEW023/// SCT036/// BKN180/// 12/08 Q1020
Loading
Personal Weather Stations






























Interactive Weather Map New forecast layout! Learn more

10-Day Weather Forecast

Advertisements
Track Severe Weather on mobile